createdAt,value
2022-09-10T00:00:00.519Z,1007.15
2022-09-10T00:01:00.529Z,1007.14
2022-09-10T00:02:00.505Z,1007.17
2022-09-10T00:03:00.487Z,1007.20
2022-09-10T00:04:00.468Z,1007.22
2022-09-10T00:05:00.445Z,1007.20
2022-09-10T00:06:00.478Z,1007.25
2022-09-10T00:07:00.425Z,1007.26
2022-09-10T00:08:00.411Z,1007.25
2022-09-10T00:09:00.398Z,1007.25
2022-09-10T00:10:00.392Z,1007.27
2022-09-10T00:11:00.381Z,1007.26
2022-09-10T00:12:00.349Z,1007.24
2022-09-10T00:13:00.340Z,1007.24
2022-09-10T00:14:00.382Z,1007.25
2022-09-10T00:15:00.307Z,1007.26
2022-09-10T00:16:00.364Z,1007.25
2022-09-10T00:17:00.287Z,1007.24
2022-09-10T00:18:00.272Z,1007.27
2022-09-10T00:19:00.252Z,1007.23
2022-09-10T00:20:00.239Z,1007.26
2022-09-10T00:21:00.250Z,1007.24
2022-09-10T00:22:00.245Z,1007.28
2022-09-10T00:23:00.213Z,1007.26
2022-09-10T00:24:00.189Z,1007.22
2022-09-10T00:25:00.311Z,1007.28
2022-09-10T00:26:00.186Z,1007.23
2022-09-10T00:27:00.138Z,1007.21
2022-09-10T00:28:00.135Z,1007.22
2022-09-10T00:29:00.127Z,1007.20
2022-09-10T00:30:00.211Z,1007.23
2022-09-10T00:31:00.158Z,1007.23
2022-09-10T00:32:00.076Z,1007.20
2022-09-10T00:33:00.064Z,1007.16
2022-09-10T00:34:00.065Z,1007.16
2022-09-10T00:35:00.064Z,1007.21
2022-09-10T00:36:00.040Z,1007.15
2022-09-10T00:37:00.012Z,1007.23
2022-09-10T00:38:00.002Z,1007.21
2022-09-10T00:38:59.990Z,1007.20
2022-09-10T00:40:00.107Z,1007.22
2022-09-10T00:40:59.976Z,1007.17
2022-09-10T00:41:59.950Z,1007.22
2022-09-10T00:42:59.928Z,1007.21
2022-09-10T00:43:59.915Z,1007.20
2022-09-10T00:44:59.901Z,1007.24
2022-09-10T00:45:59.927Z,1007.21
2022-09-10T00:46:59.871Z,1007.20
2022-09-10T00:47:59.862Z,1007.18
2022-09-10T00:48:59.854Z,1007.20
2022-09-10T00:49:59.935Z,1007.19
2022-09-10T00:50:59.853Z,1007.22
2022-09-10T00:51:59.828Z,1007.22
2022-09-10T00:52:59.792Z,1007.20
2022-09-10T00:53:59.830Z,1007.15
2022-09-10T00:54:59.767Z,1007.17
2022-09-10T00:55:59.817Z,1007.18
2022-09-10T00:56:59.745Z,1007.14
2022-09-10T00:57:59.734Z,1007.14
2022-09-10T00:58:59.708Z,1007.11
2022-09-10T00:59:59.801Z,1007.07
2022-09-10T01:00:59.726Z,1007.13
2022-09-10T01:01:59.747Z,1007.13
2022-09-10T01:02:59.662Z,1007.08
2022-09-10T01:03:59.645Z,1007.11
2022-09-10T01:04:59.687Z,1007.12
2022-09-10T01:05:59.641Z,1007.12
2022-09-10T01:06:59.614Z,1007.10
2022-09-10T01:07:59.591Z,1007.07
2022-09-10T01:08:59.577Z,1007.10
2022-09-10T01:09:59.667Z,1007.12
2022-09-10T01:10:59.563Z,1007.11
2022-09-10T01:11:59.537Z,1007.04
2022-09-10T01:12:59.535Z,1007.06
2022-09-10T01:13:59.506Z,1007.06
2022-09-10T01:14:59.510Z,1007.06
2022-09-10T01:15:59.561Z,1007.06
2022-09-10T01:16:59.476Z,1007.08
2022-09-10T01:17:59.460Z,1007.05
2022-09-10T01:18:59.449Z,1007.05
2022-09-10T01:19:59.539Z,1007.05
2022-09-10T01:20:59.433Z,1007.07
2022-09-10T01:21:59.413Z,1007.05
2022-09-10T01:22:59.404Z,1007.02
2022-09-10T01:23:59.382Z,1007.03
2022-09-10T01:24:59.474Z,1007.03
2022-09-10T01:25:59.374Z,1007.06
2022-09-10T01:26:59.358Z,1007.04
2022-09-10T01:27:59.340Z,1007.10
2022-09-10T01:28:59.311Z,1007.08
2022-09-10T01:29:59.435Z,1007.03
2022-09-10T01:30:59.310Z,1007.08
2022-09-10T01:31:59.302Z,1007.07
2022-09-10T01:32:59.258Z,1007.09
2022-09-10T01:33:59.261Z,1007.05
2022-09-10T01:34:59.279Z,1007.09
2022-09-10T01:35:59.257Z,1007.12
2022-09-10T01:36:59.203Z,1007.11
2022-09-10T01:37:59.208Z,1007.10
2022-09-10T01:38:59.182Z,1007.09
2022-09-10T01:39:59.398Z,1007.13
2022-09-10T01:40:59.165Z,1007.07
2022-09-10T01:41:59.149Z,1007.12
2022-09-10T01:42:59.131Z,1007.09
2022-09-10T01:43:59.121Z,1007.10
2022-09-10T01:44:59.120Z,1007.11
2022-09-10T01:45:59.155Z,1007.10
2022-09-10T01:46:59.111Z,1007.04
2022-09-10T01:47:59.061Z,1007.07
2022-09-10T01:48:59.038Z,1007.06
2022-09-10T01:49:59.118Z,1007.07
2022-09-10T01:50:59.021Z,1007.05
2022-09-10T01:51:59.010Z,1007.10
2022-09-10T01:59:58.293Z,1007.11
2022-09-10T02:00:59.275Z,1007.11
2022-09-10T02:01:59.270Z,1007.11
2022-09-10T02:02:59.232Z,1007.05
2022-09-10T02:03:59.225Z,1007.07
2022-09-10T02:04:59.225Z,1007.09
2022-09-10T02:05:59.197Z,1007.03
2022-09-10T02:06:59.172Z,1007.00
2022-09-10T02:07:59.195Z,1007.00
2022-09-10T02:08:59.171Z,1006.99
2022-09-10T02:09:59.171Z,1007.02
2022-09-10T02:10:59.132Z,1007.00
2022-09-10T02:11:59.116Z,1007.00
2022-09-10T02:12:59.104Z,1006.98
2022-09-10T02:13:59.093Z,1006.97
2022-09-10T02:14:59.112Z,1006.99
2022-09-10T02:15:59.098Z,1006.97
2022-09-10T02:16:59.049Z,1007.01
2022-09-10T02:17:59.039Z,1007.00
2022-09-10T02:18:59.012Z,1006.98
2022-09-10T02:19:59.048Z,1006.97
2022-09-10T02:20:59.001Z,1007.04
2022-09-10T02:21:58.992Z,1007.02
2022-09-10T02:22:58.994Z,1007.00
2022-09-10T02:23:58.948Z,1007.01
2022-09-10T02:24:58.951Z,1007.01
2022-09-10T02:25:58.919Z,1007.00
2022-09-10T02:26:58.915Z,1006.98
2022-09-10T02:27:58.899Z,1006.98
2022-09-10T02:28:58.873Z,1006.99
2022-09-10T02:29:58.880Z,1006.96
2022-09-10T02:30:58.852Z,1007.02
2022-09-10T02:31:58.835Z,1007.00
2022-09-10T02:32:58.833Z,1006.95
2022-09-10T02:33:58.803Z,1007.00
2022-09-10T02:34:58.804Z,1007.00
2022-09-10T02:35:58.786Z,1007.00
2022-09-10T02:36:58.788Z,1007.05
2022-09-10T02:37:58.764Z,1007.05
2022-09-10T02:38:58.741Z,1007.03
2022-09-10T02:39:58.779Z,1007.02
2022-09-10T02:40:58.735Z,1006.96
2022-09-10T02:41:58.709Z,1007.00
2022-09-10T02:42:58.686Z,1006.92
2022-09-10T02:43:58.673Z,1006.95
2022-09-10T02:44:58.662Z,1006.93
2022-09-10T02:45:58.703Z,1006.94
2022-09-10T02:46:58.648Z,1006.93
2022-09-10T02:47:58.663Z,1006.97
2022-09-10T02:48:58.617Z,1006.97
2022-09-10T02:49:58.584Z,1006.99
2022-09-10T02:50:58.609Z,1006.94
2022-09-10T02:51:58.558Z,1007.00
2022-09-10T02:59:57.835Z,1007.00
2022-09-10T03:00:58.861Z,1006.95
2022-09-10T03:01:58.823Z,1006.96
2022-09-10T03:03:02.943Z,1006.97
2022-09-10T03:03:58.768Z,1006.96
2022-09-10T03:04:58.750Z,1006.98
2022-09-10T03:05:58.782Z,1007.00
2022-09-10T03:06:58.724Z,1007.03
2022-09-10T03:07:58.755Z,1006.99
2022-09-10T03:08:58.712Z,1006.99
2022-09-10T03:09:58.684Z,1006.98
2022-09-10T03:10:58.733Z,1006.97
2022-09-10T03:11:58.671Z,1006.94
2022-09-10T03:12:58.649Z,1006.96
2022-09-10T03:13:58.648Z,1006.98
2022-09-10T03:14:58.617Z,1006.96
2022-09-10T03:15:58.684Z,1006.94
2022-09-10T03:16:58.606Z,1006.97
2022-09-10T03:17:58.579Z,1006.93
2022-09-10T03:18:58.557Z,1006.98
2022-09-10T03:19:58.564Z,1006.95
2022-09-10T03:20:58.576Z,1006.97
2022-09-10T03:21:58.522Z,1006.91
2022-09-10T03:22:58.507Z,1006.92
2022-09-10T03:23:58.497Z,1006.96
2022-09-10T03:24:58.545Z,1007.02
2022-09-10T03:25:58.524Z,1006.99
2022-09-10T03:26:58.452Z,1006.98
2022-09-10T03:27:58.441Z,1006.95
2022-09-10T03:28:58.431Z,1007.01
2022-09-10T03:29:58.434Z,1006.97
2022-09-10T03:30:58.429Z,1006.93
2022-09-10T03:31:58.396Z,1006.96
2022-09-10T03:32:58.391Z,1006.96
2022-09-10T03:33:58.361Z,1006.95
2022-09-10T03:34:58.359Z,1006.96
2022-09-10T03:35:58.362Z,1006.91
2022-09-10T03:36:58.330Z,1006.99
2022-09-10T03:37:58.318Z,1006.98
2022-09-10T03:38:58.302Z,1006.98
2022-09-10T03:39:58.330Z,1007.01
2022-09-10T03:40:58.281Z,1006.96
2022-09-10T03:41:58.252Z,1006.97
2022-09-10T03:42:58.250Z,1006.95
2022-09-10T03:43:58.226Z,1006.91
2022-09-10T03:44:58.212Z,1006.96
2022-09-10T03:45:58.275Z,1007.00
2022-09-10T03:46:58.187Z,1006.95
2022-09-10T03:47:58.213Z,1006.94
2022-09-10T03:48:58.159Z,1006.87
2022-09-10T03:49:58.140Z,1006.93
2022-09-10T03:50:58.517Z,1006.95
2022-09-10T03:51:58.143Z,1006.93
2022-09-10T03:59:57.400Z,1006.97
2022-09-10T04:00:58.514Z,1006.99
2022-09-10T04:01:58.410Z,1006.99
2022-09-10T04:02:58.372Z,1007.05
2022-09-10T04:03:58.329Z,1007.00
2022-09-10T04:04:58.369Z,1007.03
2022-09-10T04:05:58.310Z,1007.00
2022-09-10T04:06:58.316Z,1007.04
2022-09-10T04:07:58.284Z,1007.02
2022-09-10T04:08:58.262Z,1007.00
2022-09-10T04:09:58.254Z,1007.03
2022-09-10T04:10:58.266Z,1007.03
2022-09-10T04:11:58.225Z,1007.06
2022-09-10T04:12:58.203Z,1007.04
2022-09-10T04:13:58.217Z,1007.09
2022-09-10T04:14:58.197Z,1007.03
2022-09-10T04:15:58.180Z,1007.08
2022-09-10T04:16:58.149Z,1007.08
2022-09-10T04:17:58.183Z,1007.05
2022-09-10T04:18:58.135Z,1007.04
2022-09-10T04:19:58.162Z,1007.06
2022-09-10T04:20:58.123Z,1007.07
2022-09-10T04:21:58.083Z,1007.06
2022-09-10T04:22:58.072Z,1007.04
2022-09-10T04:23:58.055Z,1007.03
2022-09-10T04:24:58.042Z,1007.05
2022-09-10T04:25:58.080Z,1007.02
2022-09-10T04:26:58.026Z,1007.03
2022-09-10T04:27:58.007Z,1007.07
2022-09-10T04:28:58.001Z,1007.08
2022-09-10T04:29:58.020Z,1007.14
2022-09-10T04:30:57.978Z,1007.12
2022-09-10T04:31:58.016Z,1007.12
2022-09-10T04:32:57.935Z,1007.12
2022-09-10T04:33:57.941Z,1007.18
2022-09-10T04:34:57.937Z,1007.14
2022-09-10T04:35:57.855Z,1007.12
2022-09-10T04:36:57.891Z,1007.09
2022-09-10T04:37:57.873Z,1007.14
2022-09-10T04:38:57.811Z,1007.16
2022-09-10T04:39:57.835Z,1007.14
2022-09-10T04:40:57.846Z,1007.13
2022-09-10T04:41:57.824Z,1007.16
2022-09-10T04:42:57.817Z,1007.18
2022-09-10T04:43:57.752Z,1007.14
2022-09-10T04:44:57.758Z,1007.13
2022-09-10T04:45:57.747Z,1007.10
2022-09-10T04:46:57.750Z,1007.14
2022-09-10T04:47:57.749Z,1007.12
2022-09-10T04:48:57.674Z,1007.14
2022-09-10T04:49:57.669Z,1007.13
2022-09-10T04:51:15.317Z,1007.11
2022-09-10T04:51:57.638Z,1007.11
2022-09-10T04:59:56.862Z,1007.13
2022-09-10T05:00:58.253Z,1007.12
2022-09-10T05:01:57.855Z,1007.12
2022-09-10T05:02:57.799Z,1007.15
2022-09-10T05:03:57.800Z,1007.12
2022-09-10T05:04:57.798Z,1007.12
2022-09-10T05:05:57.768Z,1007.11
2022-09-10T05:06:57.750Z,1007.15
2022-09-10T05:07:57.719Z,1007.16
2022-09-10T05:08:57.712Z,1007.14
2022-09-10T05:09:57.840Z,1007.17
2022-09-10T05:10:57.702Z,1007.14
2022-09-10T05:11:57.664Z,1007.15
2022-09-10T05:12:57.700Z,1007.17
2022-09-10T05:13:57.642Z,1007.17
2022-09-10T05:14:57.795Z,1007.13
2022-09-10T05:15:57.623Z,1007.17
2022-09-10T05:16:57.620Z,1007.21
2022-09-10T05:17:57.726Z,1007.20
2022-09-10T05:18:57.572Z,1007.24
2022-09-10T05:19:58.018Z,1007.19
2022-09-10T05:20:57.554Z,1007.28
2022-09-10T05:21:57.544Z,1007.25
2022-09-10T05:22:57.518Z,1007.22
2022-09-10T05:23:57.521Z,1007.18
2022-09-10T05:24:57.507Z,1007.25
2022-09-10T05:25:57.479Z,1007.23
2022-09-10T05:26:57.478Z,1007.20
2022-09-10T05:27:57.443Z,1007.23
2022-09-10T05:28:57.452Z,1007.20
2022-09-10T05:29:57.453Z,1007.26
2022-09-10T05:30:57.437Z,1007.23
2022-09-10T05:31:57.446Z,1007.23
2022-09-10T05:32:57.400Z,1007.23
2022-09-10T05:33:57.376Z,1007.22
2022-09-10T05:34:57.470Z,1007.26
2022-09-10T05:35:57.353Z,1007.25
2022-09-10T05:36:57.336Z,1007.22
2022-09-10T05:37:57.312Z,1007.21
2022-09-10T05:38:57.339Z,1007.26
2022-09-10T05:39:57.304Z,1007.31
2022-09-10T05:40:57.318Z,1007.27
2022-09-10T05:41:57.301Z,1007.26
2022-09-10T05:42:57.246Z,1007.25
2022-09-10T05:43:57.229Z,1007.31
2022-09-10T05:44:57.248Z,1007.26
2022-09-10T05:45:57.276Z,1007.23
2022-09-10T05:46:57.205Z,1007.29
2022-09-10T05:47:57.173Z,1007.27
2022-09-10T05:48:57.159Z,1007.30
2022-09-10T05:49:57.147Z,1007.30
2022-09-10T05:50:57.173Z,1007.33
2022-09-10T05:51:57.113Z,1007.37
2022-09-10T05:52:57.102Z,1007.36
2022-09-10T05:53:57.091Z,1007.35
2022-09-10T05:54:57.075Z,1007.39
2022-09-10T05:55:57.078Z,1007.37
2022-09-10T05:56:57.069Z,1007.36
2022-09-10T05:57:57.033Z,1007.42
2022-09-10T05:58:57.026Z,1007.41
2022-09-10T05:59:57.085Z,1007.39
2022-09-10T06:00:57.024Z,1007.42
2022-09-10T06:01:57.068Z,1007.46
2022-09-10T06:02:57.199Z,1007.40
2022-09-10T06:03:56.955Z,1007.37
2022-09-10T06:04:56.944Z,1007.40
2022-09-10T06:05:56.980Z,1007.41
2022-09-10T06:06:56.915Z,1007.37
2022-09-10T06:07:56.921Z,1007.41
2022-09-10T06:08:56.882Z,1007.43
2022-09-10T06:09:57.064Z,1007.43
2022-09-10T06:10:57.003Z,1007.47
2022-09-10T06:11:56.842Z,1007.45
2022-09-10T06:12:56.835Z,1007.48
2022-09-10T06:13:56.819Z,1007.48
2022-09-10T06:14:56.788Z,1007.48
2022-09-10T06:15:56.850Z,1007.51
2022-09-10T06:16:56.854Z,1007.55
2022-09-10T06:17:56.748Z,1007.55
2022-09-10T06:18:56.803Z,1007.56
2022-09-10T06:19:56.728Z,1007.59
2022-09-10T06:20:56.881Z,1007.60
2022-09-10T06:21:56.699Z,1007.57
2022-09-10T06:22:56.692Z,1007.61
2022-09-10T06:23:56.729Z,1007.64
2022-09-10T06:24:56.655Z,1007.64
2022-09-10T06:25:56.699Z,1007.66
2022-09-10T06:26:56.641Z,1007.65
2022-09-10T06:27:56.641Z,1007.64
2022-09-10T06:28:56.613Z,1007.63
2022-09-10T06:29:56.589Z,1007.64
2022-09-10T06:30:56.779Z,1007.64
2022-09-10T06:31:56.566Z,1007.65
2022-09-10T06:32:56.555Z,1007.68
2022-09-10T06:33:56.614Z,1007.66
2022-09-10T06:34:56.535Z,1007.67
2022-09-10T06:35:56.534Z,1007.70
2022-09-10T06:36:56.507Z,1007.68
2022-09-10T06:37:56.484Z,1007.68
2022-09-10T06:38:56.668Z,1007.73
2022-09-10T06:39:56.495Z,1007.72
2022-09-10T06:40:56.479Z,1007.78
2022-09-10T06:41:56.452Z,1007.73
2022-09-10T06:42:56.431Z,1007.70
2022-09-10T06:43:56.477Z,1007.73
2022-09-10T06:44:56.395Z,1007.73
2022-09-10T06:45:56.531Z,1007.77
2022-09-10T06:47:39.035Z,1007.81
2022-09-10T06:48:37.056Z,1007.78
2022-09-10T06:48:56.671Z,1007.76
2022-09-10T06:49:56.331Z,1007.77
2022-09-10T06:50:56.324Z,1007.75
2022-09-10T06:51:56.299Z,1007.79
2022-09-10T06:55:26.952Z,1007.87
2022-09-10T06:56:26.395Z,1007.85
2022-09-10T06:57:26.346Z,1007.79
2022-09-10T06:58:26.329Z,1007.82
2022-09-10T06:59:26.321Z,1007.87
2022-09-10T07:00:26.310Z,1007.85
2022-09-10T07:01:26.460Z,1007.86
2022-09-10T07:02:26.288Z,1007.85
2022-09-10T07:03:26.267Z,1007.89
2022-09-10T07:04:26.247Z,1007.89
2022-09-10T07:05:26.244Z,1007.87
2022-09-10T07:06:26.233Z,1007.86
2022-09-10T07:07:26.211Z,1007.88
2022-09-10T07:08:26.188Z,1007.89
2022-09-10T07:09:26.181Z,1007.90
2022-09-10T07:10:32.176Z,1007.89
2022-09-10T07:11:26.146Z,1007.92
2022-09-10T07:12:26.138Z,1007.88
2022-09-10T07:13:26.120Z,1007.87
2022-09-10T07:14:26.102Z,1007.91
2022-09-10T07:15:26.109Z,1007.95
2022-09-10T07:16:26.077Z,1007.93
2022-09-10T07:17:31.147Z,1007.94
2022-09-10T07:18:26.053Z,1007.96
2022-09-10T07:19:26.041Z,1007.93
2022-09-10T07:20:26.034Z,1007.98
2022-09-10T07:21:26.009Z,1008.01
2022-09-10T07:22:25.993Z,1007.96
2022-09-10T07:23:25.983Z,1008.01
2022-09-10T07:24:25.968Z,1007.97
2022-09-10T07:25:25.971Z,1007.99
2022-09-10T07:26:25.931Z,1008.02
2022-09-10T07:27:25.932Z,1007.95
2022-09-10T07:28:25.908Z,1007.97
2022-09-10T07:29:25.907Z,1008.01
2022-09-10T07:30:25.890Z,1008.02
2022-09-10T07:31:25.927Z,1008.03
2022-09-10T07:32:25.849Z,1008.05
2022-09-10T07:33:25.840Z,1008.03
2022-09-10T07:34:25.827Z,1008.02
2022-09-10T07:35:25.831Z,1008.02
2022-09-10T07:36:25.848Z,1008.05
2022-09-10T07:37:25.786Z,1008.08
2022-09-10T07:38:25.769Z,1008.06
2022-09-10T07:39:26.141Z,1008.05
2022-09-10T07:40:25.756Z,1008.06
2022-09-10T07:41:25.731Z,1008.05
2022-09-10T07:42:25.709Z,1008.08
2022-09-10T07:43:25.704Z,1008.06
2022-09-10T07:44:25.687Z,1008.11
2022-09-10T07:45:25.694Z,1008.06
2022-09-10T07:46:25.877Z,1008.05
2022-09-10T07:47:25.666Z,1008.05
2022-09-10T07:48:25.628Z,1008.07
2022-09-10T07:49:25.624Z,1008.06
2022-09-10T07:50:25.601Z,1008.04
2022-09-10T07:51:25.602Z,1008.10
2022-09-10T07:52:25.579Z,1008.09
2022-09-10T07:53:25.558Z,1008.11
2022-09-10T07:54:25.546Z,1008.09
2022-09-10T07:55:25.532Z,1008.09
2022-09-10T07:56:25.534Z,1008.13
2022-09-10T07:57:25.512Z,1008.12
2022-09-10T07:58:25.489Z,1008.14
2022-09-10T07:59:25.478Z,1008.13
2022-09-10T08:00:25.455Z,1008.14
2022-09-10T08:01:25.530Z,1008.13
2022-09-10T08:02:25.452Z,1008.10
2022-09-10T08:03:25.421Z,1008.15
2022-09-10T08:04:25.403Z,1008.13
2022-09-10T08:05:25.393Z,1008.11
2022-09-10T08:06:25.396Z,1008.17
2022-09-10T08:07:25.368Z,1008.11
2022-09-10T08:08:25.346Z,1008.14
2022-09-10T08:09:25.346Z,1008.12
2022-09-10T08:10:25.324Z,1008.10
2022-09-10T08:11:25.327Z,1008.13
2022-09-10T08:12:25.294Z,1008.18
2022-09-10T08:13:25.308Z,1008.17
2022-09-10T08:14:25.267Z,1008.14
2022-09-10T08:15:25.259Z,1008.12
2022-09-10T08:16:25.259Z,1008.16
2022-09-10T08:17:25.270Z,1008.12
2022-09-10T08:18:25.210Z,1008.13
2022-09-10T08:19:25.203Z,1008.13
2022-09-10T08:20:25.184Z,1008.11
2022-09-10T08:21:25.190Z,1008.13
2022-09-10T08:22:25.159Z,1008.14
2022-09-10T08:23:25.156Z,1008.17
2022-09-10T08:24:25.130Z,1008.21
2022-09-10T08:25:25.124Z,1008.15
2022-09-10T08:26:25.114Z,1008.18
2022-09-10T08:27:25.090Z,1008.21
2022-09-10T08:28:25.760Z,1008.25
2022-09-10T08:29:25.060Z,1008.20
2022-09-10T08:30:25.060Z,1008.31
2022-09-10T08:31:25.057Z,1008.21
2022-09-10T08:32:25.011Z,1008.25
2022-09-10T08:33:25.021Z,1008.25
2022-09-10T08:34:24.985Z,1008.24
2022-09-10T08:35:24.991Z,1008.24
2022-09-10T08:36:24.958Z,1008.21
2022-09-10T08:37:24.946Z,1008.26
2022-09-10T08:38:24.933Z,1008.25
2022-09-10T08:39:24.921Z,1008.25
2022-09-10T08:40:24.934Z,1008.27
2022-09-10T08:41:24.895Z,1008.20
2022-09-10T08:42:24.880Z,1008.22
2022-09-10T08:43:24.867Z,1008.25
2022-09-10T08:44:24.852Z,1008.28
2022-09-10T08:45:24.976Z,1008.22
2022-09-10T08:46:24.823Z,1008.22
2022-09-10T08:47:24.840Z,1008.24
2022-09-10T08:48:24.796Z,1008.20
2022-09-10T08:49:24.784Z,1008.14
2022-09-10T08:50:24.793Z,1008.21
2022-09-10T08:51:24.759Z,1008.12
2022-09-10T08:52:24.747Z,1008.16
2022-09-10T08:53:24.726Z,1008.19
2022-09-10T08:54:24.722Z,1008.18
2022-09-10T08:55:24.723Z,1008.11
2022-09-10T08:56:24.692Z,1008.16
2022-09-10T08:57:24.684Z,1008.16
2022-09-10T08:58:24.661Z,1008.10
2022-09-10T08:59:24.649Z,1008.11
2022-09-10T09:00:24.672Z,1008.14
2022-09-10T09:01:24.676Z,1008.17
2022-09-10T09:02:47.353Z,1008.11
2022-09-10T09:03:24.647Z,1008.11
2022-09-10T09:04:24.576Z,1008.10
2022-09-10T09:05:24.595Z,1008.10
2022-09-10T09:06:24.550Z,1008.09
2022-09-10T09:07:24.539Z,1008.12
2022-09-10T09:08:24.524Z,1008.17
2022-09-10T09:09:24.518Z,1008.13
2022-09-10T09:10:24.497Z,1008.18
2022-09-10T09:11:24.500Z,1008.13
2022-09-10T09:12:24.472Z,1008.16
2022-09-10T09:13:24.469Z,1008.15
2022-09-10T09:14:24.441Z,1008.09
2022-09-10T09:15:24.436Z,1008.14
2022-09-10T09:16:24.432Z,1008.16
2022-09-10T09:17:24.420Z,1008.14
2022-09-10T09:18:24.389Z,1008.16
2022-09-10T09:19:24.386Z,1008.08
2022-09-10T09:20:24.360Z,1008.11
2022-09-10T09:21:24.370Z,1008.12
2022-09-10T09:22:24.354Z,1008.13
2022-09-10T09:23:24.327Z,1008.13
2022-09-10T09:24:24.555Z,1008.16
2022-09-10T09:25:24.312Z,1008.15
2022-09-10T09:26:24.638Z,1008.16
2022-09-10T09:27:24.541Z,1008.18
2022-09-10T09:28:24.272Z,1008.17
2022-09-10T09:29:24.301Z,1008.17
2022-09-10T09:30:24.405Z,1008.18
2022-09-10T09:31:24.345Z,1008.18
2022-09-10T09:32:24.535Z,1008.19
2022-09-10T09:33:24.190Z,1008.16
2022-09-10T09:34:24.593Z,1008.18
2022-09-10T09:35:24.178Z,1008.14
2022-09-10T09:36:24.146Z,1008.19
2022-09-10T09:37:24.151Z,1008.21
2022-09-10T09:38:24.124Z,1008.22
2022-09-10T09:39:25.808Z,1008.23
2022-09-10T09:40:24.111Z,1008.28
2022-09-10T09:41:24.085Z,1008.21
2022-09-10T09:42:24.066Z,1008.19
2022-09-10T09:43:24.060Z,1008.18
2022-09-10T09:44:24.038Z,1008.21
2022-09-10T09:45:24.047Z,1008.22
2022-09-10T09:46:24.089Z,1008.21
2022-09-10T09:47:24.029Z,1008.26
2022-09-10T09:48:24.207Z,1008.27
2022-09-10T09:49:24.222Z,1008.22
2022-09-10T09:50:24.032Z,1008.25
2022-09-10T09:51:24.286Z,1008.20
2022-09-10T09:52:23.936Z,1008.21
2022-09-10T09:53:24.167Z,1008.20
2022-09-10T09:55:10.120Z,1008.23
2022-09-10T09:55:23.959Z,1008.16
2022-09-10T09:56:24.191Z,1008.21
2022-09-10T09:57:23.864Z,1008.22
2022-09-10T09:58:23.852Z,1008.19
2022-09-10T09:59:23.844Z,1008.21
2022-09-10T10:00:23.876Z,1008.21
2022-09-10T10:01:23.900Z,1008.21
2022-09-10T10:02:23.847Z,1008.15
2022-09-10T10:03:23.778Z,1008.21
2022-09-10T10:04:23.798Z,1008.17
2022-09-10T10:05:23.743Z,1008.17
2022-09-10T10:06:23.761Z,1008.15
2022-09-10T10:07:23.719Z,1008.14
2022-09-10T10:08:23.708Z,1008.14
2022-09-10T10:09:23.697Z,1008.09
2022-09-10T10:10:23.728Z,1008.10
2022-09-10T10:11:23.732Z,1008.12
2022-09-10T10:12:23.653Z,1008.06
2022-09-10T10:13:23.640Z,1008.07
2022-09-10T10:14:23.633Z,1008.02
2022-09-10T10:15:23.614Z,1008.07
2022-09-10T10:16:23.611Z,1008.04
2022-09-10T10:17:23.582Z,1008.04
2022-09-10T10:18:23.575Z,1007.98
2022-09-10T10:19:23.577Z,1007.95
2022-09-10T10:20:23.542Z,1007.97
2022-09-10T10:21:23.571Z,1007.98
2022-09-10T10:22:23.514Z,1007.97
2022-09-10T10:23:23.503Z,1008.01
2022-09-10T10:24:23.494Z,1008.00
2022-09-10T10:25:23.468Z,1007.97
2022-09-10T10:26:23.513Z,1007.98
2022-09-10T10:27:23.447Z,1007.98
2022-09-10T10:28:23.434Z,1007.94
2022-09-10T10:29:23.420Z,1007.97
2022-09-10T10:30:23.413Z,1008.00
2022-09-10T10:31:23.768Z,1007.96
2022-09-10T10:32:23.377Z,1007.99
2022-09-10T10:33:23.360Z,1007.98
2022-09-10T10:34:23.354Z,1008.01
2022-09-10T10:35:23.330Z,1007.98
2022-09-10T10:36:23.343Z,1008.00
2022-09-10T10:37:23.311Z,1008.03
2022-09-10T10:38:23.295Z,1008.03
2022-09-10T10:39:23.284Z,1007.99
2022-09-10T10:40:23.302Z,1008.01
2022-09-10T10:41:23.357Z,1007.99
2022-09-10T10:42:23.249Z,1008.02
2022-09-10T10:43:23.285Z,1008.03
2022-09-10T10:44:23.338Z,1008.06
2022-09-10T10:45:23.194Z,1007.98
2022-09-10T10:46:23.250Z,1008.03
2022-09-10T10:47:23.174Z,1007.99
2022-09-10T10:48:23.163Z,1008.01
2022-09-10T10:49:23.144Z,1008.05
2022-09-10T10:50:23.137Z,1008.02
2022-09-10T10:51:23.156Z,1008.01
2022-09-10T10:52:23.113Z,1008.01
2022-09-10T10:53:23.136Z,1007.94
2022-09-10T10:54:23.101Z,1008.00
2022-09-10T10:55:23.057Z,1008.00
2022-09-10T10:56:23.083Z,1007.98
2022-09-10T10:57:23.036Z,1007.95
2022-09-10T10:58:23.022Z,1007.99
2022-09-10T10:59:23.007Z,1008.00
2022-09-10T11:00:22.996Z,1008.00
2022-09-10T11:01:23.044Z,1007.98
2022-09-10T11:02:22.983Z,1007.86
2022-09-10T11:03:22.950Z,1008.00
2022-09-10T11:04:22.936Z,1007.99
2022-09-10T11:05:22.918Z,1008.02
2022-09-10T11:06:22.935Z,1008.03
2022-09-10T11:07:22.892Z,1008.07
2022-09-10T11:08:22.881Z,1008.00
2022-09-10T11:09:22.864Z,1007.96
2022-09-10T11:10:22.860Z,1008.00
2022-09-10T11:11:22.868Z,1008.00
2022-09-10T11:12:22.826Z,1008.00
2022-09-10T11:13:22.810Z,1008.00
2022-09-10T11:14:22.801Z,1007.99
2022-09-10T11:15:22.783Z,1007.93
2022-09-10T11:16:22.790Z,1007.96
2022-09-10T11:17:22.753Z,1007.94
2022-09-10T11:18:22.748Z,1007.99
2022-09-10T11:19:22.727Z,1007.97
2022-09-10T11:20:30.475Z,1008.04
2022-09-10T11:21:22.721Z,1008.05
2022-09-10T11:22:22.695Z,1007.98
2022-09-10T11:23:22.678Z,1008.06
2022-09-10T11:24:22.670Z,1007.98
2022-09-10T11:25:22.645Z,1008.08
2022-09-10T11:26:22.652Z,1007.98
2022-09-10T11:27:22.619Z,1008.02
2022-09-10T11:28:22.606Z,1007.99
2022-09-10T11:29:22.595Z,1008.04
2022-09-10T11:30:22.582Z,1008.03
2022-09-10T11:31:22.618Z,1007.99
2022-09-10T11:32:22.557Z,1008.05
2022-09-10T11:33:22.536Z,1008.05
2022-09-10T11:34:22.521Z,1008.01
2022-09-10T11:35:22.512Z,1008.01
2022-09-10T11:36:22.516Z,1008.00
2022-09-10T11:37:22.482Z,1008.04
2022-09-10T11:38:22.478Z,1008.04
2022-09-10T11:39:22.450Z,1008.03
2022-09-10T11:40:22.447Z,1008.01
2022-09-10T11:41:22.439Z,1008.05
2022-09-10T11:42:22.477Z,1008.01
2022-09-10T11:43:22.396Z,1008.06
2022-09-10T11:44:22.392Z,1008.02
2022-09-10T11:45:22.377Z,1008.00
2022-09-10T11:46:22.590Z,1007.95
2022-09-10T11:47:22.347Z,1007.97
2022-09-10T11:48:22.331Z,1008.07
2022-09-10T11:49:22.400Z,1007.99
2022-09-10T11:50:22.326Z,1007.92
2022-09-10T11:51:22.545Z,1007.99
2022-09-10T11:52:22.290Z,1008.02
2022-09-10T11:53:22.266Z,1008.00
2022-09-10T11:54:22.255Z,1008.06
2022-09-10T11:55:22.239Z,1008.07
2022-09-10T11:56:22.247Z,1008.11
2022-09-10T11:57:22.210Z,1008.08
2022-09-10T11:58:22.197Z,1008.00
2022-09-10T11:59:22.181Z,1008.02
2022-09-10T12:00:22.179Z,1008.12
2022-09-10T12:01:22.175Z,1008.02
2022-09-10T12:02:22.185Z,1008.03
2022-09-10T12:03:22.179Z,1008.05
2022-09-10T12:04:22.122Z,1008.10
2022-09-10T12:05:22.100Z,1008.11
2022-09-10T12:06:22.102Z,1008.13
2022-09-10T12:07:22.072Z,1008.05
2022-09-10T12:08:22.060Z,1008.09
2022-09-10T12:09:22.046Z,1008.11
2022-09-10T12:10:22.032Z,1008.09
2022-09-10T12:11:22.035Z,1008.11
2022-09-10T12:12:22.014Z,1008.08
2022-09-10T12:13:21.991Z,1008.15
2022-09-10T12:14:22.087Z,1008.16
2022-09-10T12:15:21.961Z,1008.14
2022-09-10T12:16:22.050Z,1008.16
2022-09-10T12:17:21.937Z,1008.08
2022-09-10T12:18:21.926Z,1008.15
2022-09-10T12:19:21.909Z,1008.11
2022-09-10T12:20:21.912Z,1008.13
2022-09-10T12:21:21.894Z,1008.08
2022-09-10T12:22:21.870Z,1007.98
2022-09-10T12:23:21.851Z,1008.03
2022-09-10T12:24:21.844Z,1007.98
2022-09-10T12:25:21.832Z,1008.06
2022-09-10T12:26:21.835Z,1008.06
2022-09-10T12:27:21.796Z,1008.02
2022-09-10T12:28:21.790Z,1008.04
2022-09-10T12:29:21.769Z,1008.03
2022-09-10T12:30:21.756Z,1008.07
2022-09-10T12:31:21.857Z,1008.09
2022-09-10T12:32:21.738Z,1008.10
2022-09-10T12:33:21.717Z,1008.08
2022-09-10T12:34:21.710Z,1008.13
2022-09-10T12:35:21.697Z,1008.14